0TX1 – Local Weather Observations

Pecan Plantation

This weather station is operated by a private user located just north of the field. Data is gathered via OpenWeatherMap.org.

Last updated:
2019-01-18 16:29:36(10:29 am)

Temperature: 50.6 °F

Sunrise / Sunset: 7:30 am / 5:52 pm

Civil Dawn / Dusk: 7:03 am / 6:18 pm

Nearby METARs

KGDJ 181635Z AUTO 12008KT 5SM BR CLR 12/10 A2991 RMK AO2 T01200100

KCPT 181635Z AUTO 17015KT 2SM BR OVC004 10/10 A2993 RMK AO2

KFWS 181551Z 16009KT 5SM BR CLR 11/09 A2994

KSEP 181635Z AUTO 18008KT 5SM CLR 12/10 A2991 RMK AO2 T01160104